createdAt,value
2018-01-15T00:00:26.482Z,2.50
2018-01-15T00:01:28.945Z,2.47
2018-01-15T00:02:31.432Z,2.52
2018-01-15T00:03:33.897Z,2.46
2018-01-15T00:04:36.372Z,2.53
2018-01-15T00:05:38.834Z,2.52
2018-01-15T00:06:41.316Z,2.52
2018-01-15T00:07:43.780Z,2.54
2018-01-15T00:08:46.241Z,2.56
2018-01-15T00:09:48.724Z,2.53
2018-01-15T00:10:51.208Z,2.52
2018-01-15T00:11:53.695Z,2.47
2018-01-15T00:12:56.176Z,2.53
2018-01-15T00:13:58.642Z,2.49
2018-01-15T00:15:01.123Z,2.49
2018-01-15T00:16:03.631Z,2.50
2018-01-15T00:17:06.111Z,2.55
2018-01-15T00:18:08.586Z,2.56
2018-01-15T00:19:11.108Z,2.53
2018-01-15T00:20:13.587Z,2.52
2018-01-15T00:21:16.055Z,2.52
2018-01-15T00:22:18.520Z,2.47
2018-01-15T00:23:20.973Z,2.52
2018-01-15T00:24:23.446Z,2.52
2018-01-15T00:25:25.926Z,2.49
2018-01-15T00:26:28.492Z,2.42
2018-01-15T00:27:30.962Z,2.54
2018-01-15T00:28:33.443Z,2.50
2018-01-15T00:29:35.906Z,2.44
2018-01-15T00:30:38.366Z,2.46
2018-01-15T00:31:40.861Z,2.46
2018-01-15T00:32:43.346Z,2.49
2018-01-15T00:33:45.839Z,2.48
2018-01-15T00:34:48.305Z,2.51
2018-01-15T00:35:50.827Z,2.47
2018-01-15T00:36:53.312Z,2.49
2018-01-15T00:37:55.788Z,2.43
2018-01-15T00:38:58.283Z,2.46
2018-01-15T00:40:00.761Z,2.47
2018-01-15T00:41:03.252Z,2.52
2018-01-15T00:42:05.739Z,2.52
2018-01-15T00:43:08.217Z,2.51
2018-01-15T00:44:10.690Z,2.51
2018-01-15T00:45:13.153Z,2.55
2018-01-15T00:46:15.632Z,2.51
2018-01-15T00:47:18.121Z,2.58
2018-01-15T00:48:20.590Z,2.57
2018-01-15T00:49:23.066Z,2.49
2018-01-15T00:50:25.544Z,2.50
2018-01-15T00:51:28.016Z,2.57
2018-01-15T00:52:30.491Z,2.61
2018-01-15T00:53:33.016Z,2.66
2018-01-15T00:54:35.494Z,2.54
2018-01-15T00:55:37.968Z,2.53
2018-01-15T00:56:40.431Z,2.52
2018-01-15T00:57:42.915Z,2.57
2018-01-15T00:58:45.405Z,2.64
2018-01-15T00:59:47.872Z,2.63
2018-01-15T01:00:50.352Z,2.61
2018-01-15T01:01:52.814Z,2.55
2018-01-15T01:02:55.290Z,2.57
2018-01-15T01:03:57.793Z,2.62
2018-01-15T01:05:00.272Z,2.60
2018-01-15T01:06:02.738Z,2.60
2018-01-15T01:07:05.197Z,2.51
2018-01-15T01:08:07.661Z,2.49
2018-01-15T01:09:10.160Z,2.54
2018-01-15T01:10:12.626Z,2.55
2018-01-15T01:11:15.108Z,2.52
2018-01-15T01:12:17.585Z,2.55
2018-01-15T01:13:20.052Z,2.58
2018-01-15T01:14:22.572Z,2.53
2018-01-15T01:15:25.030Z,2.51
2018-01-15T01:16:27.507Z,2.52
2018-01-15T01:17:29.979Z,2.53
2018-01-15T01:18:32.479Z,2.49
2018-01-15T01:19:34.961Z,2.48
2018-01-15T01:20:37.436Z,2.47
2018-01-15T01:21:39.912Z,2.49
2018-01-15T01:22:42.396Z,2.39
2018-01-15T01:23:44.867Z,2.39
2018-01-15T01:24:47.371Z,2.37
2018-01-15T01:25:49.848Z,2.33
2018-01-15T01:26:52.376Z,2.32
2018-01-15T01:27:54.868Z,2.31
2018-01-15T01:28:57.326Z,2.29
2018-01-15T01:29:59.825Z,2.33
2018-01-15T01:31:02.320Z,2.22
2018-01-15T01:32:04.791Z,2.28
2018-01-15T01:33:07.266Z,2.29
2018-01-15T01:34:09.742Z,2.27
2018-01-15T01:35:12.228Z,2.28
2018-01-15T01:36:14.694Z,2.25
2018-01-15T01:37:17.166Z,2.25
2018-01-15T01:38:19.638Z,2.22
2018-01-15T01:39:22.130Z,2.27
2018-01-15T01:40:24.621Z,2.27
2018-01-15T01:41:27.077Z,2.27
2018-01-15T01:42:29.555Z,2.24
2018-01-15T01:43:32.013Z,2.28
2018-01-15T01:44:34.571Z,2.31
2018-01-15T01:45:37.061Z,2.32
2018-01-15T01:46:39.518Z,2.28
2018-01-15T01:47:42.004Z,2.30
2018-01-15T01:48:59.349Z,2.32
2018-01-15T01:50:01.836Z,2.36
2018-01-15T01:51:04.335Z,2.41
2018-01-15T01:52:06.816Z,2.43
2018-01-15T01:53:09.284Z,2.43
2018-01-15T01:54:11.742Z,2.43
2018-01-15T01:55:14.210Z,2.44
2018-01-15T01:56:16.709Z,2.46
2018-01-15T01:57:19.183Z,2.46
2018-01-15T01:58:21.668Z,2.46
2018-01-15T01:59:24.132Z,2.45
2018-01-15T02:00:26.617Z,2.41
2018-01-15T02:01:29.118Z,2.46
2018-01-15T02:02:31.596Z,2.46
2018-01-15T02:03:34.062Z,2.49
2018-01-15T02:04:36.530Z,2.51
2018-01-15T02:05:39.007Z,2.46
2018-01-15T02:06:41.485Z,2.57
2018-01-15T02:07:43.984Z,2.61
2018-01-15T02:08:46.442Z,2.53
2018-01-15T02:09:48.915Z,2.60
2018-01-15T02:10:51.390Z,2.62
2018-01-15T02:11:53.893Z,2.63
2018-01-15T02:12:56.354Z,2.67
2018-01-15T02:13:58.831Z,2.72
2018-01-15T02:15:01.308Z,2.69
2018-01-15T02:16:03.787Z,2.67
2018-01-15T02:17:06.269Z,2.67
2018-01-15T02:18:08.745Z,2.67
2018-01-15T02:19:11.202Z,2.67
2018-01-15T02:20:13.676Z,2.68
2018-01-15T02:21:16.168Z,2.74
2018-01-15T02:22:18.662Z,2.74
2018-01-15T02:23:21.118Z,2.77
2018-01-15T02:24:23.599Z,2.73
2018-01-15T02:25:26.087Z,2.82
2018-01-15T02:26:28.563Z,2.86
2018-01-15T02:27:31.064Z,2.89
2018-01-15T02:28:33.553Z,2.86
2018-01-15T02:29:36.018Z,2.82
2018-01-15T02:30:38.496Z,2.78
2018-01-15T02:31:40.965Z,2.79
2018-01-15T02:32:43.468Z,2.83
2018-01-15T02:33:45.942Z,2.82
2018-01-15T02:34:48.398Z,2.89
2018-01-15T02:35:50.861Z,2.85
2018-01-15T02:36:53.340Z,2.86
2018-01-15T02:37:55.842Z,2.86
2018-01-15T02:38:58.335Z,2.92
2018-01-15T02:40:00.819Z,2.93
2018-01-15T02:41:03.312Z,2.91
2018-01-15T02:42:05.788Z,2.89
2018-01-15T02:43:08.378Z,2.93
2018-01-15T02:44:10.895Z,2.82
2018-01-15T02:45:13.384Z,2.86
2018-01-15T02:46:15.851Z,2.96
2018-01-15T02:47:18.318Z,3.02
2018-01-15T02:48:20.809Z,2.98
2018-01-15T02:49:23.277Z,3.02
2018-01-15T02:50:25.756Z,3.03
2018-01-15T02:51:28.217Z,3.03
2018-01-15T02:52:30.678Z,3.07
2018-01-15T02:53:33.179Z,3.06
2018-01-15T02:54:35.709Z,3.09
2018-01-15T02:55:38.188Z,3.02
2018-01-15T02:56:40.650Z,2.98
2018-01-15T02:57:43.119Z,3.00
2018-01-15T02:58:45.605Z,2.98
2018-01-15T02:59:48.084Z,2.96
2018-01-15T03:00:50.549Z,2.98
2018-01-15T03:01:53.028Z,3.04
2018-01-15T03:02:55.590Z,3.05
2018-01-15T03:03:58.092Z,3.03
2018-01-15T03:05:00.559Z,3.03
2018-01-15T03:06:03.059Z,3.00
2018-01-15T03:07:05.528Z,3.05
2018-01-15T03:08:08.049Z,3.09
2018-01-15T03:09:10.520Z,3.05
2018-01-15T03:10:13.009Z,3.10
2018-01-15T03:11:15.492Z,3.09
2018-01-15T03:12:17.973Z,3.10
2018-01-15T03:13:20.436Z,3.05
2018-01-15T03:14:22.947Z,3.06
2018-01-15T03:15:25.414Z,3.11
2018-01-15T03:16:27.882Z,3.11
2018-01-15T03:17:30.350Z,3.10
2018-01-15T03:18:32.823Z,3.10
2018-01-15T03:19:35.305Z,3.13
2018-01-15T03:20:37.789Z,3.12
2018-01-15T03:21:40.247Z,3.11
2018-01-15T03:22:42.722Z,3.15
2018-01-15T03:23:45.241Z,3.12
2018-01-15T03:24:47.741Z,3.17
2018-01-15T03:25:50.233Z,3.20
2018-01-15T03:26:52.708Z,3.22
2018-01-15T03:27:55.187Z,3.22
2018-01-15T03:28:57.654Z,3.24
2018-01-15T03:30:00.157Z,3.27
2018-01-15T03:31:02.654Z,3.26
2018-01-15T03:32:05.118Z,3.28
2018-01-15T03:33:07.621Z,3.26
2018-01-15T03:34:10.108Z,3.25
2018-01-15T03:35:12.585Z,3.28
2018-01-15T03:36:15.063Z,3.20
2018-01-15T03:37:17.525Z,3.25
2018-01-15T03:38:19.986Z,3.23
2018-01-15T03:39:22.467Z,3.34
2018-01-15T03:40:24.942Z,3.25
2018-01-15T03:41:27.406Z,3.31
2018-01-15T03:42:29.893Z,3.30
2018-01-15T03:43:32.383Z,3.29
2018-01-15T03:44:34.864Z,3.29
2018-01-15T03:45:37.392Z,3.29
2018-01-15T03:46:39.876Z,3.32
2018-01-15T03:47:42.354Z,3.41
2018-01-15T03:48:44.818Z,3.35
2018-01-15T03:49:47.282Z,3.30
2018-01-15T03:50:49.760Z,3.30
2018-01-15T03:51:52.218Z,3.29
2018-01-15T03:52:54.685Z,3.36
2018-01-15T03:53:57.161Z,3.34
2018-01-15T03:54:59.622Z,3.28
2018-01-15T03:56:02.102Z,3.35
2018-01-15T03:57:04.566Z,3.37
2018-01-15T03:58:07.037Z,3.38
2018-01-15T03:59:09.522Z,3.37
2018-01-15T04:00:12.001Z,3.36
2018-01-15T04:01:14.478Z,3.36
2018-01-15T04:02:16.971Z,3.33
2018-01-15T04:03:19.442Z,3.37
2018-01-15T04:04:21.923Z,3.34
2018-01-15T04:05:24.396Z,3.37
2018-01-15T04:06:26.927Z,3.31
2018-01-15T04:07:29.414Z,3.37
2018-01-15T04:08:31.892Z,3.36
2018-01-15T04:09:34.356Z,3.39
2018-01-15T04:10:36.820Z,3.35
2018-01-15T04:11:39.328Z,3.34
2018-01-15T04:12:41.787Z,3.36
2018-01-15T04:13:44.264Z,3.33
2018-01-15T04:14:46.741Z,3.38
2018-01-15T04:15:49.226Z,3.35
2018-01-15T04:16:51.753Z,3.39
2018-01-15T04:17:54.215Z,3.38
2018-01-15T04:18:56.678Z,3.42
2018-01-15T04:19:59.143Z,3.43
2018-01-15T04:21:01.610Z,3.41
2018-01-15T04:22:04.090Z,3.43
2018-01-15T04:23:06.553Z,3.43
2018-01-15T04:24:09.018Z,3.45
2018-01-15T04:25:11.495Z,3.42
2018-01-15T04:26:13.957Z,3.38
2018-01-15T04:27:16.456Z,3.37
2018-01-15T04:28:18.953Z,3.43
2018-01-15T04:29:21.414Z,3.42
2018-01-15T04:30:23.920Z,3.38
2018-01-15T04:31:26.440Z,3.47
2018-01-15T04:32:28.930Z,3.44
2018-01-15T04:33:31.407Z,3.44
2018-01-15T04:34:33.884Z,3.40
2018-01-15T04:35:36.346Z,3.42
2018-01-15T04:36:38.834Z,3.41
2018-01-15T04:37:41.322Z,3.42
2018-01-15T04:38:43.798Z,3.40
2018-01-15T04:39:46.268Z,3.40
2018-01-15T04:40:48.730Z,3.29
2018-01-15T04:41:51.209Z,3.36
2018-01-15T04:42:53.721Z,3.34
2018-01-15T04:43:56.192Z,3.36
2018-01-15T04:44:58.673Z,3.40
2018-01-15T04:46:01.137Z,3.37
2018-01-15T04:47:03.628Z,3.36
2018-01-15T04:48:06.127Z,3.41
2018-01-15T04:49:08.586Z,3.37
2018-01-15T04:50:11.060Z,3.41
2018-01-15T04:51:13.658Z,3.39
2018-01-15T04:52:16.160Z,3.42
2018-01-15T04:53:18.653Z,3.41
2018-01-15T04:54:21.124Z,3.40
2018-01-15T04:55:23.589Z,3.39
2018-01-15T04:56:26.051Z,3.39
2018-01-15T04:57:28.536Z,3.37
2018-01-15T04:58:31.058Z,3.30
2018-01-15T04:59:33.580Z,3.29
2018-01-15T05:00:36.046Z,3.27
2018-01-15T05:01:38.534Z,3.25
2018-01-15T05:02:40.998Z,3.25
2018-01-15T05:03:43.496Z,3.18
2018-01-15T05:04:45.958Z,3.13
2018-01-15T05:05:48.428Z,3.10
2018-01-15T05:06:50.905Z,3.07
2018-01-15T05:07:53.384Z,3.05
2018-01-15T05:08:55.870Z,3.05
2018-01-15T05:09:58.333Z,2.98
2018-01-15T05:11:00.793Z,2.95
2018-01-15T05:12:03.268Z,2.95
2018-01-15T05:13:05.743Z,2.89
2018-01-15T05:14:08.230Z,2.97
2018-01-15T05:15:10.705Z,2.96
2018-01-15T05:16:13.162Z,2.93
2018-01-15T05:17:15.640Z,2.90
2018-01-15T05:18:18.115Z,2.88
2018-01-15T05:19:20.635Z,2.89
2018-01-15T05:20:23.103Z,2.93
2018-01-15T05:21:25.582Z,2.92
2018-01-15T05:22:28.062Z,2.96
2018-01-15T05:23:30.540Z,3.05
2018-01-15T05:24:33.017Z,3.05
2018-01-15T05:25:35.482Z,3.05
2018-01-15T05:26:37.953Z,2.99
2018-01-15T05:27:40.433Z,3.05
2018-01-15T05:28:42.901Z,3.02
2018-01-15T05:29:45.384Z,2.98
2018-01-15T05:30:47.837Z,2.97
2018-01-15T05:31:50.298Z,2.93
2018-01-15T05:32:52.788Z,2.96
2018-01-15T05:33:55.273Z,2.93
2018-01-15T05:34:57.754Z,2.89
2018-01-15T05:36:00.289Z,2.90
2018-01-15T05:37:02.783Z,2.88
2018-01-15T05:38:05.249Z,2.89
2018-01-15T05:39:07.756Z,2.84
2018-01-15T05:40:10.272Z,2.87
2018-01-15T05:41:12.746Z,2.89
2018-01-15T05:42:15.224Z,2.89
2018-01-15T05:43:17.683Z,2.86
2018-01-15T05:44:20.156Z,2.79
2018-01-15T05:45:22.641Z,2.85
2018-01-15T05:46:25.121Z,2.85
2018-01-15T05:47:27.630Z,2.82
2018-01-15T05:48:30.104Z,2.82
2018-01-15T05:49:32.570Z,2.82
2018-01-15T05:50:35.064Z,2.82
2018-01-15T05:51:37.553Z,2.84
2018-01-15T05:52:40.030Z,2.82
2018-01-15T05:53:42.493Z,2.83
2018-01-15T05:54:44.958Z,2.85
2018-01-15T05:55:47.456Z,2.84
2018-01-15T05:56:49.928Z,2.82
2018-01-15T05:57:52.392Z,2.83
2018-01-15T05:58:54.855Z,2.88
2018-01-15T05:59:57.355Z,2.90
2018-01-15T06:00:59.876Z,2.93
2018-01-15T06:02:02.341Z,2.94
2018-01-15T06:03:04.968Z,2.90
2018-01-15T06:04:07.451Z,2.93
2018-01-15T06:05:09.905Z,2.92
2018-01-15T06:06:12.393Z,2.91
2018-01-15T06:07:15.034Z,2.90
2018-01-15T06:08:17.514Z,2.94
2018-01-15T06:09:20.022Z,2.98
2018-01-15T06:10:22.498Z,2.97
2018-01-15T06:11:25.000Z,2.96
2018-01-15T06:12:27.466Z,2.92
2018-01-15T06:13:29.944Z,2.93
2018-01-15T06:14:32.433Z,2.95
2018-01-15T06:15:34.894Z,2.97
2018-01-15T06:16:37.395Z,2.98
2018-01-15T06:17:40.266Z,2.95
2018-01-15T06:18:42.755Z,2.90
2018-01-15T06:19:45.218Z,2.93
2018-01-15T06:20:47.700Z,2.93
2018-01-15T06:21:50.181Z,2.92
2018-01-15T06:22:52.646Z,2.88
2018-01-15T06:23:55.113Z,2.87
2018-01-15T06:24:57.578Z,2.86
2018-01-15T06:26:00.072Z,2.87
2018-01-15T06:27:02.565Z,2.85
2018-01-15T06:28:05.032Z,2.86
2018-01-15T06:29:07.519Z,2.84
2018-01-15T06:30:09.999Z,2.84
2018-01-15T06:31:12.478Z,2.85
2018-01-15T06:32:14.975Z,2.89
2018-01-15T06:33:17.461Z,2.87
2018-01-15T06:34:19.926Z,2.88
2018-01-15T06:35:22.410Z,2.89
2018-01-15T06:36:24.946Z,2.90
2018-01-15T06:37:27.454Z,2.94
2018-01-15T06:38:29.950Z,2.96
2018-01-15T06:39:32.433Z,3.01
2018-01-15T06:40:34.894Z,2.99
2018-01-15T06:41:37.355Z,3.02
2018-01-15T06:42:40.138Z,3.02
2018-01-15T06:43:42.780Z,3.04
2018-01-15T06:44:45.209Z,3.07
2018-01-15T06:45:47.681Z,3.08
2018-01-15T06:46:50.149Z,3.09
2018-01-15T06:47:52.645Z,3.08
2018-01-15T06:48:55.129Z,3.03
2018-01-15T06:49:57.628Z,3.01
2018-01-15T06:51:00.104Z,3.01
2018-01-15T06:52:02.596Z,2.98
2018-01-15T06:53:05.273Z,3.03
2018-01-15T06:54:07.767Z,3.06
2018-01-15T06:55:10.239Z,3.08
2018-01-15T06:56:12.717Z,3.13
2018-01-15T06:57:15.188Z,3.85
2018-01-15T06:58:17.679Z,3.30
2018-01-15T06:59:20.159Z,3.21
2018-01-15T07:00:22.701Z,3.17
2018-01-15T07:01:25.160Z,3.47
2018-01-15T07:02:27.626Z,3.34
2018-01-15T07:03:30.120Z,3.31
2018-01-15T07:04:32.598Z,3.20
2018-01-15T07:05:35.072Z,3.20
2018-01-15T07:06:37.529Z,3.16
2018-01-15T07:07:40.004Z,3.22
2018-01-15T07:08:42.495Z,3.10
2018-01-15T07:09:45.028Z,3.08
2018-01-15T07:10:47.485Z,3.08
2018-01-15T07:11:49.942Z,3.05
2018-01-15T07:12:52.402Z,3.25
2018-01-15T07:13:55.244Z,3.26
2018-01-15T07:14:58.135Z,3.34
2018-01-15T07:16:00.957Z,3.25
2018-01-15T07:17:03.566Z,3.21
2018-01-15T07:18:06.043Z,3.18
2018-01-15T07:19:08.512Z,3.23
2018-01-15T07:20:10.970Z,3.25
2018-01-15T07:21:13.425Z,3.31
2018-01-15T07:22:15.902Z,3.30
2018-01-15T07:23:18.357Z,3.29
2018-01-15T07:24:20.825Z,3.39
2018-01-15T07:25:23.312Z,3.34
2018-01-15T07:26:25.794Z,3.35
2018-01-15T07:27:28.253Z,3.46
2018-01-15T07:28:30.723Z,3.35
2018-01-15T07:29:33.193Z,3.34
2018-01-15T07:30:35.654Z,3.28
2018-01-15T07:31:38.117Z,3.30
2018-01-15T07:32:40.574Z,3.28
2018-01-15T07:33:43.045Z,3.32
2018-01-15T07:34:45.509Z,3.31
2018-01-15T07:35:47.984Z,3.32
2018-01-15T07:36:50.465Z,3.31
2018-01-15T07:37:52.936Z,3.27
2018-01-15T07:38:55.452Z,3.33
2018-01-15T07:39:57.913Z,3.37
2018-01-15T07:41:00.381Z,3.38
2018-01-15T07:42:02.839Z,3.34
2018-01-15T07:43:05.316Z,3.35
2018-01-15T07:44:07.769Z,3.40
2018-01-15T07:45:10.264Z,3.43
2018-01-15T07:46:12.767Z,3.44
2018-01-15T07:47:15.233Z,3.45
2018-01-15T07:48:17.707Z,3.45
2018-01-15T07:49:20.180Z,3.46
2018-01-15T07:50:22.700Z,3.53
2018-01-15T07:51:25.198Z,3.52
2018-01-15T07:52:27.711Z,3.52
2018-01-15T07:53:30.165Z,3.50
2018-01-15T07:54:32.632Z,3.50
2018-01-15T07:55:35.170Z,3.52
2018-01-15T07:56:37.656Z,3.51
2018-01-15T07:57:40.308Z,3.53
2018-01-15T07:58:42.784Z,3.56
2018-01-15T07:59:45.292Z,3.52
2018-01-15T08:00:47.767Z,3.55
2018-01-15T08:01:50.240Z,3.60
2018-01-15T08:02:52.697Z,3.62
2018-01-15T08:03:55.174Z,3.68
2018-01-15T08:04:57.682Z,3.65
2018-01-15T08:06:00.142Z,3.70
2018-01-15T08:07:02.597Z,3.67
2018-01-15T08:08:05.068Z,3.68
2018-01-15T08:09:07.568Z,3.66
2018-01-15T08:10:10.050Z,3.64
2018-01-15T08:11:12.506Z,3.72
2018-01-15T08:12:14.978Z,3.71
2018-01-15T08:13:17.436Z,3.72
2018-01-15T08:14:19.942Z,3.74
2018-01-15T08:15:22.448Z,3.75
2018-01-15T08:16:24.911Z,3.73
2018-01-15T08:17:27.383Z,3.77
2018-01-15T08:18:29.860Z,3.78
2018-01-15T08:19:32.317Z,3.78
2018-01-15T08:20:34.812Z,3.80
2018-01-15T08:21:37.279Z,3.79
2018-01-15T08:22:39.733Z,3.83
2018-01-15T08:23:42.195Z,3.80
2018-01-15T08:24:44.650Z,3.79
2018-01-15T08:25:47.130Z,3.83
2018-01-15T08:26:49.590Z,3.86
2018-01-15T08:27:52.068Z,3.81
2018-01-15T08:28:54.526Z,3.82
2018-01-15T08:29:56.986Z,3.85
2018-01-15T08:30:59.486Z,3.86
2018-01-15T08:32:01.950Z,3.88
2018-01-15T08:33:04.468Z,3.88
2018-01-15T08:34:06.960Z,3.89
2018-01-15T08:35:09.456Z,3.94
2018-01-15T08:36:11.942Z,3.96
2018-01-15T08:37:14.410Z,3.96
2018-01-15T08:38:16.870Z,3.93
2018-01-15T08:39:19.334Z,3.90
2018-01-15T08:40:21.801Z,3.96
2018-01-15T08:41:24.275Z,3.95
2018-01-15T08:42:26.748Z,3.97
2018-01-15T08:43:29.225Z,3.95
2018-01-15T08:44:31.696Z,3.97
2018-01-15T08:45:34.172Z,3.98
2018-01-15T08:46:36.667Z,3.99
2018-01-15T08:47:39.130Z,3.95
2018-01-15T08:48:41.603Z,3.97
2018-01-15T08:49:44.068Z,4.01
2018-01-15T08:50:46.550Z,4.06
2018-01-15T08:51:49.034Z,4.07
2018-01-15T08:52:51.490Z,4.10
2018-01-15T08:53:53.959Z,4.07
2018-01-15T08:54:56.418Z,4.08
2018-01-15T08:55:58.904Z,4.13
2018-01-15T08:57:01.402Z,4.11
2018-01-15T08:58:03.876Z,4.13
2018-01-15T08:59:06.351Z,4.20
2018-01-15T09:00:08.814Z,4.18
2018-01-15T09:01:11.327Z,4.22
2018-01-15T09:02:13.861Z,4.22
2018-01-15T09:03:16.319Z,4.23
2018-01-15T09:04:18.778Z,4.25
2018-01-15T09:05:21.234Z,4.33
2018-01-15T09:06:23.685Z,4.32
2018-01-15T09:07:26.162Z,4.36
2018-01-15T09:08:28.625Z,4.42
2018-01-15T09:09:31.100Z,4.42
2018-01-15T09:10:33.557Z,4.42
2018-01-15T09:11:36.035Z,4.44
2018-01-15T09:12:38.513Z,4.50
2018-01-15T09:13:40.993Z,4.55
2018-01-15T09:14:43.449Z,4.53
2018-01-15T09:15:45.917Z,4.56
2018-01-15T09:16:48.374Z,4.53
2018-01-15T09:17:50.853Z,4.60
2018-01-15T09:18:53.310Z,4.63
2018-01-15T09:19:55.774Z,4.58
2018-01-15T09:20:58.230Z,4.62
2018-01-15T09:22:00.692Z,4.58
2018-01-15T09:23:03.217Z,4.60
2018-01-15T09:24:05.680Z,4.67
2018-01-15T09:25:08.158Z,4.68
2018-01-15T09:26:10.622Z,4.64
2018-01-15T09:27:13.094Z,4.75
2018-01-15T09:28:15.574Z,4.73
2018-01-15T09:29:18.044Z,4.75
2018-01-15T09:30:20.526Z,4.75
2018-01-15T09:31:22.998Z,4.82
2018-01-15T09:32:25.478Z,4.86
2018-01-15T09:33:27.981Z,4.97
2018-01-15T09:34:30.452Z,5.00
2018-01-15T09:35:32.940Z,5.01
2018-01-15T09:36:35.407Z,5.00
2018-01-15T09:37:37.884Z,5.08
2018-01-15T09:38:40.394Z,5.06
2018-01-15T09:39:42.882Z,5.13
2018-01-15T09:40:45.356Z,5.22
2018-01-15T09:41:47.828Z,5.37
2018-01-15T09:42:50.308Z,5.35
2018-01-15T09:43:52.812Z,5.25
2018-01-15T09:44:55.286Z,5.36
2018-01-15T09:45:57.748Z,5.45
2018-01-15T09:47:00.220Z,5.28
2018-01-15T09:48:02.693Z,5.20
2018-01-15T09:49:05.190Z,5.23
2018-01-15T09:50:07.664Z,5.30
2018-01-15T09:51:10.153Z,5.27
2018-01-15T09:52:12.614Z,5.23
2018-01-15T09:53:15.069Z,5.21
2018-01-15T09:54:17.560Z,5.28
2018-01-15T09:55:20.018Z,5.31
2018-01-15T09:56:22.492Z,5.29
2018-01-15T09:57:24.960Z,5.28
2018-01-15T09:58:27.438Z,5.29
2018-01-15T09:59:29.917Z,5.26
2018-01-15T10:00:32.374Z,5.38
2018-01-15T10:01:34.833Z,5.39
2018-01-15T10:02:37.300Z,5.38
2018-01-15T10:03:39.762Z,5.44
2018-01-15T10:04:42.247Z,5.45
2018-01-15T10:05:44.724Z,5.50
2018-01-15T10:06:47.182Z,5.48
2018-01-15T10:07:49.656Z,5.50
2018-01-15T10:08:52.126Z,5.50
2018-01-15T10:09:54.610Z,5.43
2018-01-15T10:10:57.082Z,5.37
2018-01-15T10:11:59.551Z,5.49
2018-01-15T10:13:02.013Z,5.55
2018-01-15T10:14:04.608Z,5.57
2018-01-15T10:15:07.101Z,5.59
2018-01-15T10:16:09.558Z,5.68
2018-01-15T10:17:12.036Z,5.67
2018-01-15T10:18:14.500Z,5.81
2018-01-15T10:19:16.981Z,5.88
2018-01-15T10:20:19.458Z,5.93
2018-01-15T10:21:21.928Z,6.12
2018-01-15T10:22:24.412Z,6.18
2018-01-15T10:23:26.886Z,6.14
2018-01-15T10:24:29.350Z,6.03
2018-01-15T10:25:31.848Z,6.06
2018-01-15T10:26:34.306Z,6.12
2018-01-15T10:27:36.784Z,6.27
2018-01-15T10:28:39.237Z,6.42
2018-01-15T10:29:41.717Z,6.50
2018-01-15T10:30:44.202Z,6.45
2018-01-15T10:31:46.662Z,6.44
2018-01-15T10:32:49.131Z,6.52
2018-01-15T10:33:51.586Z,6.50
2018-01-15T10:34:54.072Z,6.25
2018-01-15T10:35:56.596Z,6.31
2018-01-15T10:36:59.068Z,6.38
2018-01-15T10:38:01.600Z,6.39
2018-01-15T10:39:04.088Z,6.34
2018-01-15T10:40:06.562Z,6.40
2018-01-15T10:41:09.078Z,6.49
2018-01-15T10:42:11.556Z,6.32
2018-01-15T10:43:14.006Z,6.31
2018-01-15T10:44:16.484Z,6.26
2018-01-15T10:45:18.937Z,6.24
2018-01-15T10:46:21.410Z,6.19
2018-01-15T10:47:23.863Z,6.24
2018-01-15T10:48:26.338Z,6.09
2018-01-15T10:49:28.807Z,6.19
2018-01-15T10:50:31.258Z,6.36
2018-01-15T10:51:33.731Z,6.36
2018-01-15T10:52:36.188Z,6.35
2018-01-15T10:53:38.664Z,6.42
2018-01-15T10:54:41.138Z,6.49
2018-01-15T10:55:43.591Z,6.55
2018-01-15T10:56:46.076Z,6.56
2018-01-15T10:57:48.607Z,6.57
2018-01-15T10:58:51.085Z,6.61
2018-01-15T10:59:53.530Z,6.44
2018-01-15T11:00:55.994Z,6.30
2018-01-15T11:01:58.488Z,6.27
2018-01-15T11:03:00.934Z,6.25
2018-01-15T11:04:03.386Z,6.29
2018-01-15T11:05:05.868Z,6.28
2018-01-15T11:06:08.330Z,6.32
2018-01-15T11:07:10.813Z,6.41
2018-01-15T11:08:13.322Z,6.42
2018-01-15T11:09:15.800Z,6.50
2018-01-15T11:10:18.263Z,6.57
2018-01-15T11:11:20.817Z,6.62
2018-01-15T11:12:23.303Z,6.52
2018-01-15T11:13:25.804Z,6.64
2018-01-15T11:14:28.263Z,6.65
2018-01-15T11:15:30.763Z,6.56
2018-01-15T11:16:33.234Z,6.47
2018-01-15T11:17:35.724Z,6.42
2018-01-15T11:18:38.200Z,6.53
2018-01-15T11:19:40.655Z,6.55
2018-01-15T11:20:43.125Z,6.57
2018-01-15T11:21:45.645Z,6.45
2018-01-15T11:22:48.152Z,6.29
2018-01-15T11:23:50.605Z,6.34
2018-01-15T11:24:53.076Z,6.44
2018-01-15T11:25:55.548Z,6.40
2018-01-15T11:26:58.024Z,6.38
2018-01-15T11:28:00.512Z,6.35
2018-01-15T11:29:02.976Z,6.33
2018-01-15T11:30:05.511Z,6.37
2018-01-15T11:31:07.986Z,6.32
2018-01-15T11:32:10.456Z,6.28
2018-01-15T11:33:12.929Z,6.32
2018-01-15T11:34:15.397Z,6.23
2018-01-15T11:35:17.850Z,6.35
2018-01-15T11:36:20.317Z,6.29
2018-01-15T11:37:22.774Z,6.19
2018-01-15T11:38:25.280Z,6.29
2018-01-15T11:39:27.746Z,6.26
2018-01-15T11:40:30.220Z,6.25
2018-01-15T11:41:32.690Z,6.23
2018-01-15T11:42:35.159Z,6.23
2018-01-15T11:43:37.664Z,6.15
2018-01-15T11:44:40.137Z,6.09
2018-01-15T11:45:42.619Z,6.10
2018-01-15T11:46:45.094Z,6.11
2018-01-15T11:47:47.549Z,6.13
2018-01-15T11:48:50.053Z,6.11
2018-01-15T11:49:52.525Z,6.08
2018-01-15T11:50:54.985Z,6.13
2018-01-15T11:51:57.451Z,6.10
2018-01-15T11:52:59.910Z,6.11
2018-01-15T11:54:02.401Z,6.08
2018-01-15T11:55:04.854Z,6.14
2018-01-15T11:56:07.324Z,6.16
2018-01-15T11:57:09.773Z,6.16
2018-01-15T11:58:12.226Z,6.12
2018-01-15T11:59:14.698Z,6.15
2018-01-15T12:00:17.155Z,6.15
2018-01-15T12:01:19.628Z,6.18
2018-01-15T12:02:22.100Z,6.21
2018-01-15T12:03:24.584Z,6.25
2018-01-15T12:04:27.062Z,6.22
2018-01-15T12:05:29.514Z,6.23
2018-01-15T12:06:31.980Z,6.27
2018-01-15T12:07:34.453Z,6.22
2018-01-15T12:08:36.922Z,6.23
2018-01-15T12:09:39.408Z,6.28
2018-01-15T12:10:41.862Z,6.23
2018-01-15T12:11:44.319Z,6.30
2018-01-15T12:12:46.792Z,6.25
2018-01-15T12:13:49.260Z,6.16
2018-01-15T12:14:51.738Z,6.16
2018-01-15T12:15:54.207Z,6.23
2018-01-15T12:16:56.662Z,6.19
2018-01-15T12:17:59.132Z,6.28
2018-01-15T12:19:01.585Z,6.29
2018-01-15T12:20:04.080Z,6.31
2018-01-15T12:21:06.543Z,6.21
2018-01-15T12:22:09.025Z,6.22
2018-01-15T12:23:11.499Z,6.34
2018-01-15T12:24:13.968Z,6.27
2018-01-15T12:25:16.456Z,6.30
2018-01-15T12:26:18.935Z,6.32
2018-01-15T12:27:21.431Z,6.35
2018-01-15T12:28:23.899Z,6.33
2018-01-15T12:29:26.369Z,6.23
2018-01-15T12:30:28.864Z,6.18
2018-01-15T12:31:31.340Z,6.19
2018-01-15T12:32:33.789Z,6.18
2018-01-15T12:33:36.273Z,6.17
2018-01-15T12:34:38.742Z,6.18
2018-01-15T12:35:41.236Z,6.11
2018-01-15T12:36:43.689Z,6.13
2018-01-15T12:37:46.160Z,6.16
2018-01-15T12:38:48.632Z,6.16
2018-01-15T12:39:51.082Z,6.21
2018-01-15T12:40:53.569Z,6.13
2018-01-15T12:41:56.043Z,6.14
2018-01-15T12:42:58.507Z,6.14
2018-01-15T12:44:00.978Z,6.12
2018-01-15T12:45:03.448Z,6.09
2018-01-15T12:46:05.939Z,6.08
2018-01-15T12:47:08.398Z,6.10
2018-01-15T12:48:10.860Z,6.12
2018-01-15T12:49:13.306Z,6.18
2018-01-15T12:50:15.791Z,6.14
2018-01-15T12:51:18.265Z,6.15
2018-01-15T12:52:20.743Z,6.16
2018-01-15T12:53:23.236Z,6.15
2018-01-15T12:54:25.708Z,6.21
2018-01-15T12:55:28.171Z,6.16
2018-01-15T12:56:30.648Z,6.21
2018-01-15T12:57:33.125Z,6.25
2018-01-15T12:58:35.598Z,6.28
2018-01-15T12:59:38.079Z,6.32
2018-01-15T13:00:40.531Z,6.36
2018-01-15T13:01:43.036Z,6.40
2018-01-15T13:02:45.487Z,6.40
2018-01-15T13:03:47.958Z,6.40
2018-01-15T13:04:50.413Z,6.40
2018-01-15T13:05:52.871Z,6.37
2018-01-15T13:06:57.141Z,6.41
2018-01-15T13:08:15.570Z,6.40
2018-01-15T13:09:18.070Z,6.41
2018-01-15T13:10:20.524Z,6.44
2018-01-15T13:11:22.994Z,6.44
2018-01-15T13:12:25.459Z,6.38
2018-01-15T13:13:27.926Z,6.45
2018-01-15T13:14:30.403Z,6.45
2018-01-15T13:15:32.902Z,6.47
2018-01-15T13:16:35.395Z,6.45
2018-01-15T13:17:37.855Z,6.48
2018-01-15T13:18:40.322Z,6.51
2018-01-15T13:19:42.797Z,6.47
2018-01-15T13:20:45.264Z,6.41
2018-01-15T13:21:47.727Z,6.38
2018-01-15T13:22:50.173Z,6.37
2018-01-15T13:23:52.635Z,6.33
2018-01-15T13:24:55.112Z,6.29
2018-01-15T13:25:57.588Z,6.27
2018-01-15T13:27:00.039Z,6.25
2018-01-15T13:28:02.525Z,6.28
2018-01-15T13:29:05.330Z,6.28
2018-01-15T13:30:07.824Z,6.22
2018-01-15T13:31:10.300Z,6.22
2018-01-15T13:32:12.771Z,6.20
2018-01-15T13:33:15.254Z,6.19
2018-01-15T13:34:17.714Z,6.18
2018-01-15T13:35:20.191Z,6.25
2018-01-15T13:36:22.647Z,6.25
2018-01-15T13:37:25.106Z,6.23
2018-01-15T13:38:27.561Z,6.17
2018-01-15T13:39:30.307Z,6.24
2018-01-15T13:40:32.771Z,6.22
2018-01-15T13:41:35.333Z,6.20
2018-01-15T13:42:37.793Z,6.16
2018-01-15T13:43:40.264Z,6.15
2018-01-15T13:44:42.737Z,6.17
2018-01-15T13:45:45.207Z,6.18
2018-01-15T13:46:47.680Z,6.13
2018-01-15T13:47:50.142Z,6.16
2018-01-15T13:48:52.608Z,6.20
2018-01-15T13:49:55.076Z,6.25
2018-01-15T13:50:57.525Z,6.23
2018-01-15T13:51:59.996Z,6.19